sensor_id;sensor_type;location;lat;lon;timestamp;P1;durP1;ratioP1;P2;durP2;ratioP2
40453;SDS011;26160;51.858;4.398;2023-02-23T00:02:13;158.63;;;73.70;;
40453;SDS011;26160;51.858;4.398;2023-02-23T00:04:39;157.83;;;71.10;;
40453;SDS011;26160;51.858;4.398;2023-02-23T00:07:06;148.23;;;70.20;;
40453;SDS011;26160;51.858;4.398;2023-02-23T00:09:34;138.53;;;67.43;;
40453;SDS011;26160;51.858;4.398;2023-02-23T00:12:00;163.80;;;75.27;;
40453;SDS011;26160;51.858;4.398;2023-02-23T00:14:32;144.60;;;69.90;;
40453;SDS011;26160;51.858;4.398;2023-02-23T00:16:59;142.43;;;69.47;;
40453;SDS011;26160;51.858;4.398;2023-02-23T00:19:26;130.03;;;66.07;;
40453;SDS011;26160;51.858;4.398;2023-02-23T00:21:52;164.63;;;75.13;;
40453;SDS011;26160;51.858;4.398;2023-02-23T00:24:18;142.00;;;67.70;;
40453;SDS011;26160;51.858;4.398;2023-02-23T00:26:46;148.53;;;70.53;;
40453;SDS011;26160;51.858;4.398;2023-02-23T00:29:14;163.10;;;71.43;;
40453;SDS011;26160;51.858;4.398;2023-02-23T00:31:43;157.30;;;71.20;;
40453;SDS011;26160;51.858;4.398;2023-02-23T00:34:10;157.87;;;70.00;;
40453;SDS011;26160;51.858;4.398;2023-02-23T00:36:38;175.20;;;74.63;;
40453;SDS011;26160;51.858;4.398;2023-02-23T00:39:06;142.47;;;70.97;;
40453;SDS011;26160;51.858;4.398;2023-02-23T00:41:49;133.80;;;68.63;;
40453;SDS011;26160;51.858;4.398;2023-02-23T00:44:17;147.70;;;70.37;;
40453;SDS011;26160;51.858;4.398;2023-02-23T00:46:46;187.70;;;77.30;;
40453;SDS011;26160;51.858;4.398;2023-02-23T00:49:16;151.13;;;70.70;;
40453;SDS011;26160;51.858;4.398;2023-02-23T00:51:43;177.63;;;76.97;;
40453;SDS011;26160;51.858;4.398;2023-02-23T00:54:10;136.63;;;67.13;;
40453;SDS011;26160;51.858;4.398;2023-02-23T00:56:38;175.90;;;75.73;;
40453;SDS011;26160;51.858;4.398;2023-02-23T00:59:05;142.00;;;69.67;;
40453;SDS011;26160;51.858;4.398;2023-02-23T01:01:31;155.00;;;71.73;;
40453;SDS011;26160;51.858;4.398;2023-02-23T01:03:59;142.17;;;69.60;;
40453;SDS011;26160;51.858;4.398;2023-02-23T01:06:26;158.90;;;69.60;;
40453;SDS011;26160;51.858;4.398;2023-02-23T01:08:53;124.67;;;63.23;;
40453;SDS011;26160;51.858;4.398;2023-02-23T01:11:27;143.90;;;67.67;;
40453;SDS011;26160;51.858;4.398;2023-02-23T01:13:56;119.90;;;62.10;;
40453;SDS011;26160;51.858;4.398;2023-02-23T01:16:24;171.90;;;72.27;;
40453;SDS011;26160;51.858;4.398;2023-02-23T01:18:53;148.13;;;67.43;;
40453;SDS011;26160;51.858;4.398;2023-02-23T01:21:23;126.53;;;62.17;;
40453;SDS011;26160;51.858;4.398;2023-02-23T01:23:54;133.45;;;64.93;;
40453;SDS011;26160;51.858;4.398;2023-02-23T01:26:23;117.13;;;61.80;;
40453;SDS011;26160;51.858;4.398;2023-02-23T01:28:53;125.87;;;61.73;;
40453;SDS011;26160;51.858;4.398;2023-02-23T01:33:53;122.40;;;61.80;;
40453;SDS011;26160;51.858;4.398;2023-02-23T01:36:21;135.93;;;64.90;;
40453;SDS011;26160;51.858;4.398;2023-02-23T01:38:50;144.23;;;66.43;;
40453;SDS011;26160;51.858;4.398;2023-02-23T01:41:24;134.00;;;66.27;;
40453;SDS011;26160;51.858;4.398;2023-02-23T01:43:56;138.43;;;63.77;;
40453;SDS011;26160;51.858;4.398;2023-02-23T01:46:32;146.70;;;65.20;;
40453;SDS011;26160;51.858;4.398;2023-02-23T01:49:03;168.70;;;68.77;;
40453;SDS011;26160;51.858;4.398;2023-02-23T01:51:35;138.63;;;64.20;;
40453;SDS011;26160;51.858;4.398;2023-02-23T01:54:17;141.67;;;63.30;;
40453;SDS011;26160;51.858;4.398;2023-02-23T01:56:50;113.20;;;59.00;;
40453;SDS011;26160;51.858;4.398;2023-02-23T01:59:29;164.50;;;70.07;;
40453;SDS011;26160;51.858;4.398;2023-02-23T02:01:59;163.43;;;67.17;;
40453;SDS011;26160;51.858;4.398;2023-02-23T02:04:29;154.33;;;67.73;;
40453;SDS011;26160;51.858;4.398;2023-02-23T02:07:08;143.90;;;66.53;;
40453;SDS011;26160;51.858;4.398;2023-02-23T02:09:43;143.40;;;67.45;;
40453;SDS011;26160;51.858;4.398;2023-02-23T02:12:30;143.63;;;64.70;;
40453;SDS011;26160;51.858;4.398;2023-02-23T02:14:57;148.13;;;65.40;;
40453;SDS011;26160;51.858;4.398;2023-02-23T02:20:07;127.63;;;61.72;;
40453;SDS011;26160;51.858;4.398;2023-02-23T02:23:05;151.00;;;66.53;;
40453;SDS011;26160;51.858;4.398;2023-02-23T02:37:20;166.97;;;68.80;;
40453;SDS011;26160;51.858;4.398;2023-02-23T02:43:01;136.83;;;60.30;;
40453;SDS011;26160;51.858;4.398;2023-02-23T02:45:49;124.97;;;59.93;;
40453;SDS011;26160;51.858;4.398;2023-02-23T02:48:38;142.83;;;63.80;;
40453;SDS011;26160;51.858;4.398;2023-02-23T02:56:31;148.27;;;64.83;;
40453;SDS011;26160;51.858;4.398;2023-02-23T02:59:06;153.40;;;64.80;;
40453;SDS011;26160;51.858;4.398;2023-02-23T03:02:04;136.30;;;60.93;;
40453;SDS011;26160;51.858;4.398;2023-02-23T03:04:49;116.80;;;56.63;;
40453;SDS011;26160;51.858;4.398;2023-02-23T03:07:52;138.80;;;61.90;;
40453;SDS011;26160;51.858;4.398;2023-02-23T03:19:56;142.17;;;61.50;;
40453;SDS011;26160;51.858;4.398;2023-02-23T03:29:01;144.77;;;61.83;;
40453;SDS011;26160;51.858;4.398;2023-02-23T03:32:02;126.33;;;58.23;;
40453;SDS011;26160;51.858;4.398;2023-02-23T03:35:17;143.60;;;61.83;;
40453;SDS011;26160;51.858;4.398;2023-02-23T03:38:13;147.80;;;61.83;;
40453;SDS011;26160;51.858;4.398;2023-02-23T03:41:01;141.10;;;60.30;;
40453;SDS011;26160;51.858;4.398;2023-02-23T03:43:57;132.23;;;56.73;;
40453;SDS011;26160;51.858;4.398;2023-02-23T03:46:45;144.37;;;60.17;;
40453;SDS011;26160;51.858;4.398;2023-02-23T03:49:33;137.50;;;60.87;;
40453;SDS011;26160;51.858;4.398;2023-02-23T03:52:21;148.33;;;62.07;;
40453;SDS011;26160;51.858;4.398;2023-02-23T03:55:17;156.73;;;64.47;;
40453;SDS011;26160;51.858;4.398;2023-02-23T03:58:10;171.20;;;63.60;;
40453;SDS011;26160;51.858;4.398;2023-02-23T04:00:59;143.63;;;60.27;;
40453;SDS011;26160;51.858;4.398;2023-02-23T04:03:47;137.57;;;58.70;;
40453;SDS011;26160;51.858;4.398;2023-02-23T04:06:35;150.07;;;60.43;;
40453;SDS011;26160;51.858;4.398;2023-02-23T04:09:23;143.33;;;60.33;;
40453;SDS011;26160;51.858;4.398;2023-02-23T04:12:10;147.03;;;62.67;;
40453;SDS011;26160;51.858;4.398;2023-02-23T04:15:15;184.23;;;68.63;;
40453;SDS011;26160;51.858;4.398;2023-02-23T04:17:54;148.53;;;62.03;;
40453;SDS011;26160;51.858;4.398;2023-02-23T04:20:20;116.50;;;54.27;;
40453;SDS011;26160;51.858;4.398;2023-02-23T04:22:47;145.10;;;62.70;;
40453;SDS011;26160;51.858;4.398;2023-02-23T04:25:14;155.30;;;63.77;;
40453;SDS011;26160;51.858;4.398;2023-02-23T04:27:41;145.53;;;61.53;;
40453;SDS011;26160;51.858;4.398;2023-02-23T04:30:07;121.60;;;55.70;;
40453;SDS011;26160;51.858;4.398;2023-02-23T04:32:36;124.13;;;57.03;;
40453;SDS011;26160;51.858;4.398;2023-02-23T04:35:02;123.67;;;57.63;;
40453;SDS011;26160;51.858;4.398;2023-02-23T04:37:28;126.70;;;58.07;;
40453;SDS011;26160;51.858;4.398;2023-02-23T04:39:54;121.03;;;56.93;;
40453;SDS011;26160;51.858;4.398;2023-02-23T04:42:20;138.47;;;60.27;;
40453;SDS011;26160;51.858;4.398;2023-02-23T04:44:47;165.50;;;62.13;;
40453;SDS011;26160;51.858;4.398;2023-02-23T04:47:14;130.10;;;57.27;;
40453;SDS011;26160;51.858;4.398;2023-02-23T04:49:40;168.07;;;64.20;;
40453;SDS011;26160;51.858;4.398;2023-02-23T04:52:10;138.47;;;58.13;;
40453;SDS011;26160;51.858;4.398;2023-02-23T04:54:36;174.00;;;65.27;;
40453;SDS011;26160;51.858;4.398;2023-02-23T04:57:03;148.23;;;59.83;;
40453;SDS011;26160;51.858;4.398;2023-02-23T04:59:30;174.00;;;64.03;;
40453;SDS011;26160;51.858;4.398;2023-02-23T05:01:56;164.80;;;61.47;;
40453;SDS011;26160;51.858;4.398;2023-02-23T05:04:23;181.07;;;64.47;;
40453;SDS011;26160;51.858;4.398;2023-02-23T05:06:49;138.93;;;59.43;;
40453;SDS011;26160;51.858;4.398;2023-02-23T05:09:15;148.57;;;59.53;;
40453;SDS011;26160;51.858;4.398;2023-02-23T05:11:41;208.97;;;66.70;;
40453;SDS011;26160;51.858;4.398;2023-02-23T05:14:07;199.70;;;64.07;;
40453;SDS011;26160;51.858;4.398;2023-02-23T05:16:34;174.20;;;62.73;;
40453;SDS011;26160;51.858;4.398;2023-02-23T05:19:00;136.33;;;56.23;;
40453;SDS011;26160;51.858;4.398;2023-02-23T05:21:26;164.73;;;60.97;;
40453;SDS011;26160;51.858;4.398;2023-02-23T05:23:53;154.17;;;60.60;;
40453;SDS011;26160;51.858;4.398;2023-02-23T05:26:19;152.63;;;59.37;;
40453;SDS011;26160;51.858;4.398;2023-02-23T05:28:45;201.83;;;67.80;;
40453;SDS011;26160;51.858;4.398;2023-02-23T05:31:11;133.93;;;56.70;;
40453;SDS011;26160;51.858;4.398;2023-02-23T05:33:38;204.27;;;69.67;;
40453;SDS011;26160;51.858;4.398;2023-02-23T05:36:07;148.13;;;57.87;;
40453;SDS011;26160;51.858;4.398;2023-02-23T05:38:35;146.20;;;61.60;;
40453;SDS011;26160;51.858;4.398;2023-02-23T05:41:05;159.57;;;63.30;;
40453;SDS011;26160;51.858;4.398;2023-02-23T05:43:35;140.50;;;58.53;;
40453;SDS011;26160;51.858;4.398;2023-02-23T05:46:05;121.43;;;54.17;;
40453;SDS011;26160;51.858;4.398;2023-02-23T05:48:36;154.27;;;59.93;;
40453;SDS011;26160;51.858;4.398;2023-02-23T05:51:03;184.27;;;64.80;;
40453;SDS011;26160;51.858;4.398;2023-02-23T05:53:30;157.40;;;60.90;;
40453;SDS011;26160;51.858;4.398;2023-02-23T05:55:56;170.13;;;60.03;;
40453;SDS011;26160;51.858;4.398;2023-02-23T05:58:23;156.57;;;58.30;;
40453;SDS011;26160;51.858;4.398;2023-02-23T06:00:50;130.60;;;55.80;;
40453;SDS011;26160;51.858;4.398;2023-02-23T06:03:16;151.60;;;60.53;;
40453;SDS011;26160;51.858;4.398;2023-02-23T06:05:50;149.07;;;58.47;;
40453;SDS011;26160;51.858;4.398;2023-02-23T06:08:20;157.97;;;59.27;;
40453;SDS011;26160;51.858;4.398;2023-02-23T06:10:46;158.17;;;59.70;;
40453;SDS011;26160;51.858;4.398;2023-02-23T06:13:12;176.40;;;58.50;;
40453;SDS011;26160;51.858;4.398;2023-02-23T06:15:39;176.30;;;61.40;;
40453;SDS011;26160;51.858;4.398;2023-02-23T06:18:05;171.70;;;60.83;;
40453;SDS011;26160;51.858;4.398;2023-02-23T06:20:33;157.13;;;57.47;;
40453;SDS011;26160;51.858;4.398;2023-02-23T06:23:00;176.77;;;57.90;;
40453;SDS011;26160;51.858;4.398;2023-02-23T06:25:27;170.70;;;57.60;;
40453;SDS011;26160;51.858;4.398;2023-02-23T06:27:53;170.63;;;58.83;;
40453;SDS011;26160;51.858;4.398;2023-02-23T06:30:20;133.57;;;51.07;;
40453;SDS011;26160;51.858;4.398;2023-02-23T06:32:46;149.47;;;53.17;;
40453;SDS011;26160;51.858;4.398;2023-02-23T06:37:49;167.50;;;55.63;;
40453;SDS011;26160;51.858;4.398;2023-02-23T06:43:37;171.80;;;55.57;;
40453;SDS011;26160;51.858;4.398;2023-02-23T06:46:05;175.43;;;56.13;;
40453;SDS011;26160;51.858;4.398;2023-02-23T06:48:34;175.30;;;55.57;;
40453;SDS011;26160;51.858;4.398;2023-02-23T06:51:11;123.93;;;47.67;;
40453;SDS011;26160;51.858;4.398;2023-02-23T06:56:17;124.37;;;49.00;;
40453;SDS011;26160;51.858;4.398;2023-02-23T06:58:45;166.90;;;54.33;;
40453;SDS011;26160;51.858;4.398;2023-02-23T07:01:18;142.83;;;51.13;;
40453;SDS011;26160;51.858;4.398;2023-02-23T07:03:47;176.03;;;56.00;;
40453;SDS011;26160;51.858;4.398;2023-02-23T07:06:26;177.98;;;57.97;;
40453;SDS011;26160;51.858;4.398;2023-02-23T07:08:57;150.70;;;51.27;;
40453;SDS011;26160;51.858;4.398;2023-02-23T07:11:25;147.80;;;49.17;;
40453;SDS011;26160;51.858;4.398;2023-02-23T07:13:52;138.80;;;51.67;;
40453;SDS011;26160;51.858;4.398;2023-02-23T07:16:20;138.47;;;51.93;;
40453;SDS011;26160;51.858;4.398;2023-02-23T07:22:08;193.50;;;56.77;;
40453;SDS011;26160;51.858;4.398;2023-02-23T07:24:41;143.53;;;50.53;;
40453;SDS011;26160;51.858;4.398;2023-02-23T07:27:10;128.03;;;48.57;;
40453;SDS011;26160;51.858;4.398;2023-02-23T07:29:43;123.80;;;50.10;;
40453;SDS011;26160;51.858;4.398;2023-02-23T07:34:36;136.53;;;50.43;;
40453;SDS011;26160;51.858;4.398;2023-02-23T07:37:04;156.67;;;50.90;;
40453;SDS011;26160;51.858;4.398;2023-02-23T07:39:30;142.60;;;51.50;;
40453;SDS011;26160;51.858;4.398;2023-02-23T07:41:56;135.40;;;50.73;;
40453;SDS011;26160;51.858;4.398;2023-02-23T07:44:23;155.73;;;53.57;;
40453;SDS011;26160;51.858;4.398;2023-02-23T07:46:49;153.80;;;52.90;;
40453;SDS011;26160;51.858;4.398;2023-02-23T07:49:17;123.10;;;50.13;;
40453;SDS011;26160;51.858;4.398;2023-02-23T07:54:19;128.93;;;50.57;;
40453;SDS011;26160;51.858;4.398;2023-02-23T07:56:46;111.67;;;47.20;;
40453;SDS011;26160;51.858;4.398;2023-02-23T07:59:12;127.23;;;47.93;;
40453;SDS011;26160;51.858;4.398;2023-02-23T08:01:39;111.93;;;46.43;;
40453;SDS011;26160;51.858;4.398;2023-02-23T08:04:05;109.23;;;43.90;;
40453;SDS011;26160;51.858;4.398;2023-02-23T08:06:31;109.20;;;43.47;;
40453;SDS011;26160;51.858;4.398;2023-02-23T08:08:58;110.40;;;43.83;;
40453;SDS011;26160;51.858;4.398;2023-02-23T08:11:25;94.10;;;40.23;;
40453;SDS011;26160;51.858;4.398;2023-02-23T08:13:54;108.17;;;41.13;;
40453;SDS011;26160;51.858;4.398;2023-02-23T08:16:27;101.70;;;42.50;;
40453;SDS011;26160;51.858;4.398;2023-02-23T08:18:55;96.63;;;40.07;;
40453;SDS011;26160;51.858;4.398;2023-02-23T08:21:23;96.70;;;39.27;;
40453;SDS011;26160;51.858;4.398;2023-02-23T08:23:49;84.47;;;38.13;;
40453;SDS011;26160;51.858;4.398;2023-02-23T08:26:15;81.07;;;37.97;;
40453;SDS011;26160;51.858;4.398;2023-02-23T08:28:42;82.20;;;36.40;;
40453;SDS011;26160;51.858;4.398;2023-02-23T08:31:11;87.47;;;38.10;;
40453;SDS011;26160;51.858;4.398;2023-02-23T08:33:38;83.90;;;36.33;;
40453;SDS011;26160;51.858;4.398;2023-02-23T08:36:05;71.70;;;33.70;;
40453;SDS011;26160;51.858;4.398;2023-02-23T08:38:32;71.07;;;34.07;;
40453;SDS011;26160;51.858;4.398;2023-02-23T08:41:01;62.80;;;29.90;;
40453;SDS011;26160;51.858;4.398;2023-02-23T08:43:30;64.30;;;30.10;;
40453;SDS011;26160;51.858;4.398;2023-02-23T08:45:56;60.93;;;31.53;;
40453;SDS011;26160;51.858;4.398;2023-02-23T08:48:23;61.50;;;29.97;;
40453;SDS011;26160;51.858;4.398;2023-02-23T08:50:49;56.40;;;29.50;;
40453;SDS011;26160;51.858;4.398;2023-02-23T08:53:19;52.90;;;28.60;;
40453;SDS011;26160;51.858;4.398;2023-02-23T08:55:47;54.63;;;28.30;;
40453;SDS011;26160;51.858;4.398;2023-02-23T08:58:13;50.43;;;27.27;;
40453;SDS011;26160;51.858;4.398;2023-02-23T09:00:39;49.20;;;26.20;;
40453;SDS011;26160;51.858;4.398;2023-02-23T09:03:05;46.67;;;25.90;;
40453;SDS011;26160;51.858;4.398;2023-02-23T09:05:32;45.60;;;23.67;;
40453;SDS011;26160;51.858;4.398;2023-02-23T09:08:01;46.23;;;24.03;;
40453;SDS011;26160;51.858;4.398;2023-02-23T09:10:27;40.40;;;23.17;;
40453;SDS011;26160;51.858;4.398;2023-02-23T09:12:53;41.33;;;21.60;;
40453;SDS011;26160;51.858;4.398;2023-02-23T09:15:20;35.70;;;19.50;;
40453;SDS011;26160;51.858;4.398;2023-02-23T09:17:46;36.77;;;18.90;;
40453;SDS011;26160;51.858;4.398;2023-02-23T09:20:14;32.93;;;18.83;;
40453;SDS011;26160;51.858;4.398;2023-02-23T09:22:41;33.03;;;18.27;;
40453;SDS011;26160;51.858;4.398;2023-02-23T09:25:17;31.60;;;16.83;;
40453;SDS011;26160;51.858;4.398;2023-02-23T09:27:51;26.60;;;16.93;;
40453;SDS011;26160;51.858;4.398;2023-02-23T09:30:19;32.13;;;17.43;;
40453;SDS011;26160;51.858;4.398;2023-02-23T09:32:46;24.67;;;14.90;;
40453;SDS011;26160;51.858;4.398;2023-02-23T09:35:13;26.47;;;15.67;;
40453;SDS011;26160;51.858;4.398;2023-02-23T09:37:49;24.03;;;13.37;;
40453;SDS011;26160;51.858;4.398;2023-02-23T09:40:24;23.57;;;13.87;;
40453;SDS011;26160;51.858;4.398;2023-02-23T09:43:05;21.53;;;13.80;;
40453;SDS011;26160;51.858;4.398;2023-02-23T09:45:41;23.70;;;14.30;;
40453;SDS011;26160;51.858;4.398;2023-02-23T09:50:49;19.33;;;12.00;;
40453;SDS011;26160;51.858;4.398;2023-02-23T09:56:28;21.03;;;13.10;;
40453;SDS011;26160;51.858;4.398;2023-02-23T09:58:57;23.50;;;13.43;;
40453;SDS011;26160;51.858;4.398;2023-02-23T10:04:26;28.53;;;13.30;;
40453;SDS011;26160;51.858;4.398;2023-02-23T10:07:12;22.48;;;12.73;;
40453;SDS011;26160;51.858;4.398;2023-02-23T10:12:25;18.20;;;11.20;;
40453;SDS011;26160;51.858;4.398;2023-02-23T10:23:40;17.50;;;11.70;;
40453;SDS011;26160;51.858;4.398;2023-02-23T10:26:14;21.02;;;12.30;;
40453;SDS011;26160;51.858;4.398;2023-02-23T10:28:43;17.80;;;11.52;;
40453;SDS011;26160;51.858;4.398;2023-02-23T10:31:18;20.40;;;12.50;;
40453;SDS011;26160;51.858;4.398;2023-02-23T10:33:50;15.87;;;11.60;;
40453;SDS011;26160;51.858;4.398;2023-02-23T10:36:27;23.20;;;13.43;;
40453;SDS011;26160;51.858;4.398;2023-02-23T10:39:17;20.08;;;12.77;;
40453;SDS011;26160;51.858;4.398;2023-02-23T10:41:43;17.00;;;12.90;;
40453;SDS011;26160;51.858;4.398;2023-02-23T10:44:14;18.50;;;12.63;;
40453;SDS011;26160;51.858;4.398;2023-02-23T10:46:48;20.20;;;13.60;;
40453;SDS011;26160;51.858;4.398;2023-02-23T10:49:19;20.67;;;13.33;;
40453;SDS011;26160;51.858;4.398;2023-02-23T10:51:48;23.97;;;13.43;;
40453;SDS011;26160;51.858;4.398;2023-02-23T10:54:35;22.47;;;13.10;;
40453;SDS011;26160;51.858;4.398;2023-02-23T10:57:25;21.73;;;13.17;;
40453;SDS011;26160;51.858;4.398;2023-02-23T11:02:38;18.17;;;12.80;;
40453;SDS011;26160;51.858;4.398;2023-02-23T11:05:06;18.57;;;13.23;;
40453;SDS011;26160;51.858;4.398;2023-02-23T11:07:49;21.93;;;12.53;;
40453;SDS011;26160;51.858;4.398;2023-02-23T11:10:33;20.33;;;13.10;;
40453;SDS011;26160;51.858;4.398;2023-02-23T11:12:59;19.33;;;12.43;;
40453;SDS011;26160;51.858;4.398;2023-02-23T11:15:32;20.10;;;13.13;;
40453;SDS011;26160;51.858;4.398;2023-02-23T11:18:04;20.50;;;12.97;;
40453;SDS011;26160;51.858;4.398;2023-02-23T11:20:35;17.70;;;12.63;;
40453;SDS011;26160;51.858;4.398;2023-02-23T11:23:11;16.70;;;11.77;;
40453;SDS011;26160;51.858;4.398;2023-02-23T11:25:42;18.87;;;12.20;;
40453;SDS011;26160;51.858;4.398;2023-02-23T11:28:16;19.67;;;13.27;;
40453;SDS011;26160;51.858;4.398;2023-02-23T11:30:47;18.37;;;12.07;;
40453;SDS011;26160;51.858;4.398;2023-02-23T11:33:15;17.43;;;12.00;;
40453;SDS011;26160;51.858;4.398;2023-02-23T11:35:44;21.50;;;12.70;;
40453;SDS011;26160;51.858;4.398;2023-02-23T11:41:04;22.93;;;12.50;;
40453;SDS011;26160;51.858;4.398;2023-02-23T11:43:46;21.60;;;12.50;;
40453;SDS011;26160;51.858;4.398;2023-02-23T11:46:14;21.63;;;12.98;;
40453;SDS011;26160;51.858;4.398;2023-02-23T11:48:46;24.33;;;13.77;;
40453;SDS011;26160;51.858;4.398;2023-02-23T11:51:26;21.40;;;13.50;;
40453;SDS011;26160;51.858;4.398;2023-02-23T11:53:55;20.43;;;13.53;;
40453;SDS011;26160;51.858;4.398;2023-02-23T11:56:23;26.83;;;13.60;;
40453;SDS011;26160;51.858;4.398;2023-02-23T11:58:54;25.77;;;13.83;;
40453;SDS011;26160;51.858;4.398;2023-02-23T12:01:34;25.58;;;13.68;;
40453;SDS011;26160;51.858;4.398;2023-02-23T12:04:10;21.63;;;12.73;;
40453;SDS011;26160;51.858;4.398;2023-02-23T12:07:30;20.97;;;12.33;;
40453;SDS011;26160;51.858;4.398;2023-02-23T12:10:18;19.30;;;12.27;;
40453;SDS011;26160;51.858;4.398;2023-02-23T12:13:04;23.40;;;12.40;;
40453;SDS011;26160;51.858;4.398;2023-02-23T12:15:49;19.53;;;11.83;;
40453;SDS011;26160;51.858;4.398;2023-02-23T12:18:31;24.93;;;12.60;;
40453;SDS011;26160;51.858;4.398;2023-02-23T12:21:23;21.03;;;12.60;;
40453;SDS011;26160;51.858;4.398;2023-02-23T12:24:09;21.37;;;12.40;;
40453;SDS011;26160;51.858;4.398;2023-02-23T12:26:50;16.83;;;10.43;;
40453;SDS011;26160;51.858;4.398;2023-02-23T12:29:45;16.83;;;9.47;;
40453;SDS011;26160;51.858;4.398;2023-02-23T12:38:25;21.67;;;12.20;;
40453;SDS011;26160;51.858;4.398;2023-02-23T12:44:19;20.23;;;10.60;;
40453;SDS011;26160;51.858;4.398;2023-02-23T12:49:56;18.70;;;8.10;;
40453;SDS011;26160;51.858;4.398;2023-02-23T12:52:33;9.57;;;5.07;;
40453;SDS011;26160;51.858;4.398;2023-02-23T12:55:05;8.50;;;4.30;;
40453;SDS011;26160;51.858;4.398;2023-02-23T12:57:45;5.10;;;3.43;;
40453;SDS011;26160;51.858;4.398;2023-02-23T13:06:00;25.40;;;13.13;;
40453;SDS011;26160;51.858;4.398;2023-02-23T13:09:12;25.97;;;14.73;;
40453;SDS011;26160;51.858;4.398;2023-02-23T13:14:40;30.97;;;17.70;;
40453;SDS011;26160;51.858;4.398;2023-02-23T13:17:32;40.13;;;20.57;;
40453;SDS011;26160;51.858;4.398;2023-02-23T13:20:19;36.23;;;19.83;;
40453;SDS011;26160;51.858;4.398;2023-02-23T13:28:19;35.60;;;19.73;;
40453;SDS011;26160;51.858;4.398;2023-02-23T13:30:52;35.37;;;20.40;;
40453;SDS011;26160;51.858;4.398;2023-02-23T13:33:26;37.93;;;21.40;;
40453;SDS011;26160;51.858;4.398;2023-02-23T13:36:02;32.53;;;19.67;;
40453;SDS011;26160;51.858;4.398;2023-02-23T13:47:04;39.50;;;21.87;;
40453;SDS011;26160;51.858;4.398;2023-02-23T13:49:53;38.42;;;22.77;;
40453;SDS011;26160;51.858;4.398;2023-02-23T13:52:38;36.80;;;21.00;;
40453;SDS011;26160;51.858;4.398;2023-02-23T13:57:51;34.35;;;18.98;;
40453;SDS011;26160;51.858;4.398;2023-02-23T14:00:19;31.30;;;18.27;;
40453;SDS011;26160;51.858;4.398;2023-02-23T14:02:47;28.67;;;16.20;;
40453;SDS011;26160;51.858;4.398;2023-02-23T14:05:16;29.33;;;15.27;;
40453;SDS011;26160;51.858;4.398;2023-02-23T14:07:50;24.42;;;13.68;;
40453;SDS011;26160;51.858;4.398;2023-02-23T14:10:27;26.05;;;13.70;;
40453;SDS011;26160;51.858;4.398;2023-02-23T14:32:39;19.20;;;10.67;;
40453;SDS011;26160;51.858;4.398;2023-02-23T14:40:37;16.20;;;10.43;;
40453;SDS011;26160;51.858;4.398;2023-02-23T14:43:31;19.17;;;10.47;;
40453;SDS011;26160;51.858;4.398;2023-02-23T14:48:39;17.40;;;10.73;;
40453;SDS011;26160;51.858;4.398;2023-02-23T14:56:21;18.50;;;11.50;;
40453;SDS011;26160;51.858;4.398;2023-02-23T15:09:35;23.43;;;11.10;;
40453;SDS011;26160;51.858;4.398;2023-02-23T15:30:49;14.40;;;9.00;;
40453;SDS011;26160;51.858;4.398;2023-02-23T15:48:53;16.53;;;8.00;;
40453;SDS011;26160;51.858;4.398;2023-02-23T16:01:47;20.60;;;5.67;;
40453;SDS011;26160;51.858;4.398;2023-02-23T16:34:33;33.28;;;12.00;;
40453;SDS011;26160;51.858;4.398;2023-02-23T16:42:35;21.03;;;5.83;;
40453;SDS011;26160;51.858;4.398;2023-02-23T16:58:07;20.17;;;5.50;;
40453;SDS011;26160;51.858;4.398;2023-02-23T17:00:35;23.13;;;6.95;;
40453;SDS011;26160;51.858;4.398;2023-02-23T17:03:02;21.50;;;5.87;;
40453;SDS011;26160;51.858;4.398;2023-02-23T17:08:06;24.00;;;4.93;;
40453;SDS011;26160;51.858;4.398;2023-02-23T17:10:34;28.07;;;5.27;;
40453;SDS011;26160;51.858;4.398;2023-02-23T17:13:02;22.43;;;5.23;;
40453;SDS011;26160;51.858;4.398;2023-02-23T17:28:23;24.83;;;4.97;;
40453;SDS011;26160;51.858;4.398;2023-02-23T17:38:38;25.93;;;5.97;;
40453;SDS011;26160;51.858;4.398;2023-02-23T17:41:09;42.87;;;7.93;;
40453;SDS011;26160;51.858;4.398;2023-02-23T17:43:43;42.97;;;6.20;;
40453;SDS011;26160;51.858;4.398;2023-02-23T17:46:10;43.47;;;6.13;;
40453;SDS011;26160;51.858;4.398;2023-02-23T17:48:37;44.37;;;6.43;;
40453;SDS011;26160;51.858;4.398;2023-02-23T17:51:06;44.97;;;7.90;;
40453;SDS011;26160;51.858;4.398;2023-02-23T17:53:34;38.20;;;7.03;;
40453;SDS011;26160;51.858;4.398;2023-02-23T17:56:01;36.57;;;7.00;;
40453;SDS011;26160;51.858;4.398;2023-02-23T17:58:27;36.70;;;6.50;;
40453;SDS011;26160;51.858;4.398;2023-02-23T18:00:55;36.80;;;7.17;;
40453;SDS011;26160;51.858;4.398;2023-02-23T18:03:22;39.93;;;7.80;;
40453;SDS011;26160;51.858;4.398;2023-02-23T18:05:50;47.13;;;7.93;;
40453;SDS011;26160;51.858;4.398;2023-02-23T18:08:17;48.03;;;8.80;;
40453;SDS011;26160;51.858;4.398;2023-02-23T18:10:51;45.60;;;7.83;;
40453;SDS011;26160;51.858;4.398;2023-02-23T18:13:18;37.67;;;7.50;;
40453;SDS011;26160;51.858;4.398;2023-02-23T18:15:48;47.67;;;7.67;;
40453;SDS011;26160;51.858;4.398;2023-02-23T18:18:30;40.50;;;6.73;;
40453;SDS011;26160;51.858;4.398;2023-02-23T18:20:57;43.60;;;7.13;;
40453;SDS011;26160;51.858;4.398;2023-02-23T18:23:25;46.67;;;8.33;;
40453;SDS011;26160;51.858;4.398;2023-02-23T18:26:07;45.73;;;6.73;;
40453;SDS011;26160;51.858;4.398;2023-02-23T18:28:36;32.93;;;5.80;;
40453;SDS011;26160;51.858;4.398;2023-02-23T18:31:04;44.13;;;7.33;;
40453;SDS011;26160;51.858;4.398;2023-02-23T18:33:30;29.77;;;5.00;;
40453;SDS011;26160;51.858;4.398;2023-02-23T18:36:00;38.27;;;5.70;;
40453;SDS011;26160;51.858;4.398;2023-02-23T18:38:28;41.47;;;5.43;;
40453;SDS011;26160;51.858;4.398;2023-02-23T18:40:54;38.30;;;5.40;;
40453;SDS011;26160;51.858;4.398;2023-02-23T18:43:20;21.87;;;3.93;;
40453;SDS011;26160;51.858;4.398;2023-02-23T18:45:46;26.60;;;3.83;;
40453;SDS011;26160;51.858;4.398;2023-02-23T18:48:12;33.03;;;4.30;;
40453;SDS011;26160;51.858;4.398;2023-02-23T18:50:39;28.97;;;4.33;;
40453;SDS011;26160;51.858;4.398;2023-02-23T18:53:05;34.03;;;5.03;;
40453;SDS011;26160;51.858;4.398;2023-02-23T18:55:34;28.73;;;4.53;;
40453;SDS011;26160;51.858;4.398;2023-02-23T18:58:02;21.47;;;4.20;;
40453;SDS011;26160;51.858;4.398;2023-02-23T19:00:29;27.50;;;4.67;;
40453;SDS011;26160;51.858;4.398;2023-02-23T19:03:04;28.07;;;4.10;;
40453;SDS011;26160;51.858;4.398;2023-02-23T19:05:30;24.57;;;3.70;;
40453;SDS011;26160;51.858;4.398;2023-02-23T19:07:57;19.73;;;3.37;;
40453;SDS011;26160;51.858;4.398;2023-02-23T19:10:23;19.87;;;3.30;;
40453;SDS011;26160;51.858;4.398;2023-02-23T19:12:49;21.47;;;3.00;;
40453;SDS011;26160;51.858;4.398;2023-02-23T19:15:15;21.50;;;3.70;;
40453;SDS011;26160;51.858;4.398;2023-02-23T19:17:42;27.63;;;3.67;;
40453;SDS011;26160;51.858;4.398;2023-02-23T19:20:08;17.17;;;2.97;;
40453;SDS011;26160;51.858;4.398;2023-02-23T19:22:38;36.47;;;5.43;;
40453;SDS011;26160;51.858;4.398;2023-02-23T19:25:05;18.80;;;3.80;;
40453;SDS011;26160;51.858;4.398;2023-02-23T19:27:36;21.90;;;5.10;;
40453;SDS011;26160;51.858;4.398;2023-02-23T19:30:02;22.73;;;4.03;;